Time;durP1;ratioP1;P1;durP2;ratioP2;P2;SDS_P1;SDS_P2;PMS_P1;PMS_P2;Temp;Humidity;BMP_temperature;BMP_pressure;BME280_temperature;BME280_humidity;BME280_pressure;Samples;Min_cycle;Max_cycle;Signal;HPM_P1;HPM_P2
2023/04/28 00:02:00;;;;;;;2.15;1.20;;;12.80;99.90;;;;;;5095789;28;20414;-59
2023/04/28 00:04:27;;;;;;;2.08;1.20;;;12.80;99.90;;;;;;5095988;28;20440;-60
2023/04/28 00:06:54;;;;;;;1.50;1.00;;;12.80;99.90;;;;;;5096262;28;20418;-60
2023/04/28 00:09:23;;;;;;;2.92;1.20;;;12.90;99.90;;;;;;5096915;28;20413;-59
2023/04/28 00:11:50;;;;;;;1.60;1.10;;;13.10;99.90;;;;;;5104969;28;20747;-59
2023/04/28 00:14:17;;;;;;;2.53;1.30;;;13.20;99.90;;;;;;5116506;28;20425;-59
2023/04/28 00:16:44;;;;;;;1.60;1.10;;;13.30;99.90;;;;;;5117958;28;20477;-59
2023/04/28 00:19:11;;;;;;;2.20;1.10;;;13.20;99.90;;;;;;5115815;28;20432;-60
2023/04/28 00:21:38;;;;;;;2.40;1.10;;;13.20;99.90;;;;;;5115411;28;20815;-60
2023/04/28 00:24:06;;;;;;;1.55;1.00;;;13.20;99.90;;;;;;5117151;28;20536;-58
2023/04/28 00:26:34;;;;;;;1.70;1.10;;;13.20;99.90;;;;;;5116564;28;20432;-58
2023/04/28 00:29:02;;;;;;;3.67;1.00;;;13.30;99.90;;;;;;5113922;28;21284;-59
2023/04/28 00:31:29;;;;;;;1.80;1.00;;;13.40;99.90;;;;;;5115796;28;20504;-58
2023/04/28 00:33:56;;;;;;;1.70;0.90;;;13.30;99.90;;;;;;5113797;28;20420;-59
2023/04/28 00:36:22;;;;;;;1.92;0.90;;;13.40;99.90;;;;;;5115406;28;20424;-60
2023/04/28 00:38:50;;;;;;;1.20;0.90;;;13.30;99.90;;;;;;5113904;28;20728;-60
2023/04/28 00:41:17;;;;;;;1.30;1.00;;;13.40;99.90;;;;;;5114862;28;20435;-59
2023/04/28 00:43:46;;;;;;;2.38;0.90;;;13.40;99.90;;;;;;5115044;28;20420;-63
2023/04/28 00:46:20;;;;;;;2.80;0.90;;;13.40;99.90;;;;;;5115971;28;20428;-59
2023/04/28 00:48:48;;;;;;;2.00;0.90;;;13.40;99.90;;;;;;5116202;28;20500;-59
2023/04/28 00:51:16;;;;;;;1.90;0.90;;;13.40;99.90;;;;;;5116395;28;20435;-58
2023/04/28 00:53:43;;;;;;;2.10;0.90;;;13.50;99.90;;;;;;5115349;28;20420;-58
2023/04/28 00:56:11;;;;;;;1.42;0.90;;;13.50;99.90;;;;;;5116052;28;20801;-59
2023/04/28 00:58:38;;;;;;;1.65;1.00;;;13.40;99.90;;;;;;5115577;28;20523;-59
2023/04/28 01:01:08;;;;;;;1.40;0.98;;;13.40;99.90;;;;;;5115988;28;20485;-58
2023/04/28 01:03:37;;;;;;;1.42;0.90;;;13.40;99.90;;;;;;5115653;28;20417;-58
2023/04/28 01:06:05;;;;;;;2.35;1.10;;;13.40;99.90;;;;;;5115570;28;20481;-59
2023/04/28 01:08:34;;;;;;;2.00;0.90;;;13.40;99.90;;;;;;5115801;28;20444;-58
2023/04/28 01:11:02;;;;;;;1.30;1.10;;;13.40;99.90;;;;;;5115422;28;20427;-59
2023/04/28 01:13:29;;;;;;;1.63;1.00;;;13.30;99.90;;;;;;5115655;28;20704;-59
2023/04/28 01:15:56;;;;;;;1.70;1.00;;;13.20;99.90;;;;;;5115755;28;20428;-60
2023/04/28 01:18:25;;;;;;;2.50;0.95;;;13.30;99.90;;;;;;5115361;28;20485;-58
2023/04/28 01:20:52;;;;;;;1.60;0.90;;;13.30;99.90;;;;;;5115083;28;20430;-59
2023/04/28 01:23:19;;;;;;;1.48;1.00;;;13.30;99.90;;;;;;5115274;28;20416;-59
2023/04/28 01:25:48;;;;;;;1.20;0.90;;;13.40;99.90;;;;;;5115327;28;20431;-59
2023/04/28 01:28:15;;;;;;;3.20;1.00;;;13.40;99.90;;;;;;5115373;28;20417;-59
2023/04/28 01:30:42;;;;;;;1.70;0.90;;;13.50;99.90;;;;;;5115235;28;20818;-59
2023/04/28 01:33:09;;;;;;;2.30;1.40;;;13.50;99.90;;;;;;5114886;28;20422;-59
2023/04/28 01:35:36;;;;;;;1.40;1.10;;;13.40;99.90;;;;;;5114613;28;20424;-59
2023/04/28 01:38:03;;;;;;;1.70;1.30;;;13.40;99.90;;;;;;5114616;28;20851;-59
2023/04/28 01:40:30;;;;;;;1.80;1.00;;;13.40;99.90;;;;;;5114965;28;20843;-60
2023/04/28 01:42:58;;;;;;;1.40;1.00;;;13.30;99.90;;;;;;5114592;28;21060;-59
2023/04/28 01:45:25;;;;;;;2.60;1.00;;;13.30;99.90;;;;;;5114410;28;20419;-59
2023/04/28 01:47:52;;;;;;;1.60;0.90;;;13.20;99.90;;;;;;5114799;28;20455;-60
2023/04/28 01:50:19;;;;;;;2.20;1.00;;;13.20;99.90;;;;;;5114642;28;20470;-60
2023/04/28 01:52:46;;;;;;;1.70;1.00;;;13.30;99.90;;;;;;5114478;28;20431;-59
2023/04/28 01:55:13;;;;;;;2.27;1.00;;;13.30;99.90;;;;;;5114229;28;20426;-59
2023/04/28 01:57:40;;;;;;;1.90;0.90;;;13.30;99.90;;;;;;5114756;28;20439;-59
2023/04/28 02:00:10;;;;;;;1.58;0.80;;;13.30;99.90;;;;;;5114674;28;20420;-59
2023/04/28 02:02:37;;;;;;;1.40;0.80;;;13.40;99.90;;;;;;5114174;28;20835;-59
2023/04/28 02:05:04;;;;;;;2.72;0.90;;;13.40;99.90;;;;;;5114589;28;20431;-60
2023/04/28 02:07:31;;;;;;;1.20;0.80;;;13.50;99.90;;;;;;5114556;28;20424;-60
2023/04/28 02:09:58;;;;;;;1.20;0.90;;;13.50;99.90;;;;;;5114835;28;20428;-59
2023/04/28 02:12:25;;;;;;;1.80;0.90;;;13.50;99.90;;;;;;5113839;28;20719;-60
2023/04/28 02:14:52;;;;;;;1.20;0.80;;;13.60;99.90;;;;;;5114692;28;20432;-59
2023/04/28 02:17:21;;;;;;;1.10;0.80;;;13.60;99.90;;;;;;5113971;28;20424;-58
2023/04/28 02:19:47;;;;;;;1.00;0.80;;;13.60;99.90;;;;;;5114138;28;20432;-58
2023/04/28 02:22:14;;;;;;;2.08;0.80;;;13.60;99.90;;;;;;5113052;28;20472;-58
2023/04/28 02:24:41;;;;;;;1.33;0.80;;;13.60;99.90;;;;;;5112602;28;20912;-62
2023/04/28 02:27:08;;;;;;;1.00;0.80;;;13.50;99.90;;;;;;5111688;28;20408;-61
2023/04/28 02:29:35;;;;;;;1.38;0.70;;;13.60;99.90;;;;;;5113530;28;20492;-58
2023/04/28 02:32:03;;;;;;;1.00;0.80;;;13.70;99.90;;;;;;5113504;28;20499;-60
2023/04/28 02:34:31;;;;;;;1.20;1.10;;;13.70;99.90;;;;;;5114567;28;20420;-61
2023/04/28 02:36:58;;;;;;;0.90;0.80;;;13.70;99.90;;;;;;5114480;28;20416;-58
2023/04/28 02:39:26;;;;;;;1.30;0.88;;;13.70;99.90;;;;;;5112321;28;20436;-58
2023/04/28 02:41:53;;;;;;;1.10;0.80;;;13.60;99.90;;;;;;5113131;28;20909;-60
2023/04/28 02:44:21;;;;;;;1.80;1.00;;;13.50;99.90;;;;;;5113827;28;20416;-58
2023/04/28 02:46:48;;;;;;;1.70;0.85;;;13.50;99.90;;;;;;5114620;28;20428;-59
2023/04/28 02:49:15;;;;;;;1.83;1.00;;;13.50;99.90;;;;;;5113187;28;20489;-60
2023/04/28 02:51:43;;;;;;;1.10;0.80;;;13.50;99.90;;;;;;5114300;28;20705;-59
2023/04/28 02:54:10;;;;;;;1.90;0.90;;;13.40;99.90;;;;;;5114483;28;20431;-59
2023/04/28 02:56:39;;;;;;;1.10;0.90;;;13.40;99.90;;;;;;5108851;28;20753;-59
2023/04/28 02:59:06;;;;;;;1.30;0.90;;;13.40;99.90;;;;;;5093793;28;20734;-59
2023/04/28 03:01:33;;;;;;;1.52;0.70;;;13.40;99.90;;;;;;5093815;28;20506;-59
2023/04/28 03:04:00;;;;;;;1.70;0.80;;;13.40;99.90;;;;;;5093991;28;20491;-59
2023/04/28 03:06:27;;;;;;;1.30;0.90;;;13.30;99.90;;;;;;5103775;28;20431;-59
2023/04/28 03:08:56;;;;;;;1.25;0.80;;;13.30;99.90;;;;;;5113818;28;20416;-59
2023/04/28 03:11:23;;;;;;;1.60;0.97;;;13.20;99.90;;;;;;5114483;28;20424;-59
2023/04/28 03:13:50;;;;;;;1.03;0.70;;;13.20;99.90;;;;;;5114422;28;20416;-59
2023/04/28 03:16:17;;;;;;;0.90;0.70;;;13.20;99.90;;;;;;5114333;28;20436;-59
2023/04/28 03:18:44;;;;;;;1.33;0.90;;;13.10;99.90;;;;;;5116530;28;20507;-60
2023/04/28 03:21:11;;;;;;;1.30;0.80;;;13.00;99.90;;;;;;5117503;28;20481;-60
2023/04/28 03:23:38;;;;;;;1.10;0.70;;;13.00;99.90;;;;;;5115456;28;20739;-59
2023/04/28 03:26:06;;;;;;;1.40;0.80;;;13.00;99.90;;;;;;5117643;28;20431;-60
2023/04/28 03:28:33;;;;;;;1.87;0.90;;;13.00;99.90;;;;;;5117795;28;20412;-60
2023/04/28 03:31:01;;;;;;;2.07;0.90;;;13.10;99.90;;;;;;5117054;28;20743;-60
2023/04/28 03:33:28;;;;;;;1.08;0.75;;;13.10;99.90;;;;;;5117587;28;20424;-60
2023/04/28 03:35:55;;;;;;;1.10;0.70;;;13.10;99.90;;;;;;5117860;28;20847;-60
2023/04/28 03:38:22;;;;;;;1.20;0.75;;;13.20;99.90;;;;;;5117422;28;20427;-60
2023/04/28 03:40:49;;;;;;;1.40;0.70;;;13.10;99.90;;;;;;5117507;28;20858;-60
2023/04/28 03:43:17;;;;;;;1.95;1.13;;;13.10;99.90;;;;;;5116973;28;20464;-62
2023/04/28 03:45:45;;;;;;;1.80;0.82;;;13.20;99.90;;;;;;5116990;28;20459;-60
2023/04/28 03:48:12;;;;;;;1.90;0.80;;;13.20;99.90;;;;;;5117122;28;20478;-60
2023/04/28 03:50:39;;;;;;;1.40;0.80;;;13.30;99.90;;;;;;5115614;28;20892;-59
2023/04/28 03:53:07;;;;;;;1.45;0.80;;;13.40;99.90;;;;;;5117518;28;20423;-60
2023/04/28 03:55:34;;;;;;;1.40;0.80;;;13.40;99.90;;;;;;5117406;28;20452;-60
2023/04/28 03:58:01;;;;;;;1.00;0.80;;;13.40;99.90;;;;;;5116991;28;20469;-60
2023/04/28 04:00:29;;;;;;;1.02;0.80;;;13.40;99.90;;;;;;5114819;28;20474;-60
2023/04/28 04:02:56;;;;;;;1.40;0.90;;;13.40;99.90;;;;;;5115761;28;20504;-60
2023/04/28 04:05:23;;;;;;;2.13;0.90;;;13.30;99.90;;;;;;5116943;28;20463;-60
2023/04/28 04:07:50;;;;;;;1.50;0.80;;;13.30;99.90;;;;;;5113295;28;20725;-60
2023/04/28 04:10:18;;;;;;;1.20;0.77;;;13.20;99.90;;;;;;5116824;28;20428;-59
2023/04/28 04:12:45;;;;;;;1.10;0.80;;;13.20;99.90;;;;;;5116150;28;20419;-60
2023/04/28 04:15:12;;;;;;;1.00;0.80;;;13.30;99.90;;;;;;5115721;28;20460;-59
2023/04/28 04:17:40;;;;;;;1.85;0.80;;;13.30;99.90;;;;;;5113165;28;20420;-60
2023/04/28 04:20:08;;;;;;;1.30;0.93;;;13.30;99.90;;;;;;5113992;28;20485;-60
2023/04/28 04:22:35;;;;;;;1.00;0.70;;;13.30;99.90;;;;;;5113937;28;20720;-60
2023/04/28 04:25:02;;;;;;;1.10;0.80;;;13.40;99.90;;;;;;5113461;28;20447;-60
2023/04/28 04:27:29;;;;;;;1.20;0.70;;;13.40;99.90;;;;;;5096972;28;20426;-59
2023/04/28 04:29:57;;;;;;;1.38;0.80;;;13.50;99.90;;;;;;5112964;28;20427;-59
2023/04/28 04:32:24;;;;;;;0.93;0.70;;;13.40;99.90;;;;;;5114519;28;20473;-60
2023/04/28 04:34:52;;;;;;;1.00;0.70;;;13.40;99.90;;;;;;5114321;28;20827;-60
2023/04/28 04:37:19;;;;;;;1.40;0.70;;;13.50;99.90;;;;;;5114199;28;20505;-61
2023/04/28 04:39:46;;;;;;;1.02;0.80;;;13.50;99.90;;;;;;5114984;28;20908;-61
2023/04/28 04:42:13;;;;;;;1.70;0.80;;;13.40;99.90;;;;;;5115534;28;20473;-60
2023/04/28 04:44:40;;;;;;;1.80;0.80;;;13.40;99.90;;;;;;5115830;28;20412;-60
2023/04/28 04:47:07;;;;;;;1.00;0.80;;;13.40;99.90;;;;;;5115405;28;20474;-61
2023/04/28 04:49:34;;;;;;;1.73;0.70;;;13.50;99.90;;;;;;5115251;28;20420;-60
2023/04/28 04:52:02;;;;;;;1.10;0.70;;;13.50;99.90;;;;;;5113713;28;20504;-63
2023/04/28 04:54:30;;;;;;;1.50;0.70;;;13.50;99.90;;;;;;5113145;28;20412;-60
2023/04/28 04:56:57;;;;;;;0.90;0.60;;;13.50;99.90;;;;;;5114295;28;20948;-60
2023/04/28 04:59:24;;;;;;;1.40;0.73;;;13.50;99.90;;;;;;5113604;28;20428;-60
2023/04/28 05:01:51;;;;;;;1.15;0.70;;;13.50;99.90;;;;;;5112720;28;20481;-60
2023/04/28 05:04:18;;;;;;;2.00;0.70;;;13.60;99.90;;;;;;5113308;28;20481;-59
2023/04/28 05:06:45;;;;;;;1.10;0.70;;;13.60;99.90;;;;;;5114371;28;20866;-59
2023/04/28 05:09:13;;;;;;;0.80;0.60;;;13.60;99.90;;;;;;5114043;28;20424;-59
2023/04/28 05:11:40;;;;;;;1.10;0.80;;;13.50;99.90;;;;;;5113212;28;20427;-58
2023/04/28 05:14:07;;;;;;;1.20;0.80;;;13.40;99.90;;;;;;5114223;28;20904;-59
2023/04/28 05:16:34;;;;;;;1.60;0.90;;;13.30;99.90;;;;;;5105022;28;20921;-59
2023/04/28 05:19:01;;;;;;;1.02;0.80;;;13.10;99.90;;;;;;5100860;28;20840;-59
2023/04/28 05:21:28;;;;;;;1.40;0.80;;;13.00;99.90;;;;;;5099486;28;20426;-59
2023/04/28 05:23:56;;;;;;;1.80;0.80;;;12.90;99.90;;;;;;5093358;28;20447;-59
2023/04/28 05:26:25;;;;;;;2.13;1.00;;;12.90;99.90;;;;;;5094239;28;20450;-58
2023/04/28 05:28:52;;;;;;;1.20;0.80;;;12.90;99.90;;;;;;5093527;28;20544;-59
2023/04/28 05:31:19;;;;;;;1.20;0.80;;;12.80;99.90;;;;;;5092822;28;20487;-59
2023/04/28 05:33:46;;;;;;;1.98;0.90;;;12.80;99.90;;;;;;5092512;28;20489;-59
2023/04/28 05:36:15;;;;;;;1.50;0.80;;;12.70;99.90;;;;;;5093519;28;20512;-58
2023/04/28 05:38:42;;;;;;;1.20;0.90;;;12.60;99.90;;;;;;5093469;28;20429;-59
2023/04/28 05:41:09;;;;;;;1.13;0.80;;;12.60;99.90;;;;;;5089708;28;20426;-57
2023/04/28 05:43:38;;;;;;;1.40;0.90;;;12.60;99.90;;;;;;5091347;28;20779;-58
2023/04/28 05:46:05;;;;;;;1.30;0.90;;;12.60;99.90;;;;;;5091171;28;20437;-58
2023/04/28 05:48:32;;;;;;;1.40;0.90;;;12.60;99.90;;;;;;5090827;28;20410;-58
2023/04/28 05:50:59;;;;;;;1.80;0.90;;;12.50;99.90;;;;;;5091782;28;20414;-58
2023/04/28 05:53:26;;;;;;;2.50;0.90;;;12.50;99.90;;;;;;5089655;28;20414;-58
2023/04/28 05:55:53;;;;;;;2.20;1.00;;;12.50;99.90;;;;;;5092602;28;20446;-58
2023/04/28 05:58:21;;;;;;;1.60;0.90;;;12.70;99.90;;;;;;5090621;28;20417;-58
2023/04/28 06:00:49;;;;;;;1.75;0.90;;;12.70;99.90;;;;;;5090833;28;20429;-59
2023/04/28 06:03:17;;;;;;;1.33;1.00;;;12.80;99.90;;;;;;5089536;28;20479;-59
2023/04/28 06:05:44;;;;;;;1.50;0.90;;;12.70;99.90;;;;;;5096551;28;20431;-58
2023/04/28 06:08:11;;;;;;;1.42;0.90;;;12.80;99.90;;;;;;5112215;28;20408;-58
2023/04/28 06:10:38;;;;;;;1.30;1.10;;;12.80;99.90;;;;;;5100922;28;20426;-58
2023/04/28 06:13:05;;;;;;;1.50;0.90;;;12.90;99.90;;;;;;5112329;28;20412;-60
2023/04/28 06:15:33;;;;;;;2.00;0.80;;;12.80;99.90;;;;;;5095994;28;20422;-59
2023/04/28 06:18:02;;;;;;;1.30;0.90;;;12.70;99.90;;;;;;5105045;28;20421;-60
2023/04/28 06:20:29;;;;;;;2.15;1.00;;;12.70;99.90;;;;;;5099951;28;20436;-60
2023/04/28 06:22:55;;;;;;;1.60;0.80;;;12.70;99.90;;;;;;5099098;28;20420;-60
2023/04/28 06:25:23;;;;;;;2.50;0.90;;;12.70;99.90;;;;;;5107850;28;20546;-60
2023/04/28 06:27:50;;;;;;;2.40;1.00;;;12.60;99.90;;;;;;5093156;28;20462;-60
2023/04/28 06:30:19;;;;;;;3.50;1.00;;;12.70;99.90;;;;;;5102267;28;20414;-60
2023/04/28 06:32:46;;;;;;;1.45;0.90;;;12.70;99.90;;;;;;5104075;28;20511;-60
2023/04/28 06:35:16;;;;;;;1.55;0.80;;;12.70;99.90;;;;;;5093249;28;20535;-60
2023/04/28 06:37:43;;;;;;;1.20;0.90;;;12.80;99.90;;;;;;5095405;28;20473;-65
2023/04/28 06:40:11;;;;;;;1.33;0.98;;;12.80;99.90;;;;;;5103910;28;20884;-61
2023/04/28 06:42:38;;;;;;;1.60;0.90;;;12.80;99.90;;;;;;5100010;28;20455;-60
2023/04/28 06:45:05;;;;;;;1.65;0.90;;;12.90;99.90;;;;;;5107023;28;20431;-61
2023/04/28 06:47:32;;;;;;;1.83;0.90;;;12.90;99.90;;;;;;5091404;28;20418;-61
2023/04/28 06:50:00;;;;;;;1.30;1.00;;;13.00;99.90;;;;;;5092155;28;20507;-60
2023/04/28 06:52:29;;;;;;;1.40;0.95;;;13.00;99.90;;;;;;5094527;28;20421;-60
2023/04/28 06:54:56;;;;;;;1.38;0.90;;;13.00;99.90;;;;;;5094921;28;20413;-59
2023/04/28 06:57:23;;;;;;;1.10;0.80;;;13.00;99.90;;;;;;5094579;28;20414;-59
2023/04/28 06:59:50;;;;;;;1.42;0.82;;;13.10;99.90;;;;;;5093686;28;20434;-59
2023/04/28 07:02:17;;;;;;;1.83;0.82;;;13.00;99.90;;;;;;5094038;28;20478;-60
2023/04/28 07:04:44;;;;;;;1.90;0.80;;;13.10;99.90;;;;;;5094080;28;20418;-59
2023/04/28 07:07:12;;;;;;;1.30;0.90;;;13.20;99.90;;;;;;5092489;28;20418;-60
2023/04/28 07:09:40;;;;;;;1.20;0.90;;;13.20;99.90;;;;;;5093887;28;20421;-60
2023/04/28 07:12:07;;;;;;;1.90;0.90;;;13.40;99.90;;;;;;5095995;28;20996;-59
2023/04/28 07:14:34;;;;;;;1.40;1.00;;;13.30;99.90;;;;;;5095024;28;20417;-59
2023/04/28 07:17:01;;;;;;;2.30;1.05;;;13.40;99.90;;;;;;5093809;28;20893;-59
2023/04/28 07:19:28;;;;;;;3.10;1.13;;;13.50;99.90;;;;;;5094240;28;20791;-60
2023/04/28 07:21:55;;;;;;;1.50;0.90;;;13.50;99.90;;;;;;5095030;28;20421;-60
2023/04/28 07:24:23;;;;;;;1.10;0.80;;;13.50;99.90;;;;;;5098361;28;20509;-60
2023/04/28 07:26:52;;;;;;;1.40;0.70;;;13.50;99.90;;;;;;5106318;28;20426;-60
2023/04/28 07:29:19;;;;;;;1.10;0.90;;;13.60;99.90;;;;;;5103231;28;20581;-59
2023/04/28 07:31:46;;;;;;;2.30;0.90;;;13.70;99.90;;;;;;5113706;28;20453;-59
2023/04/28 07:34:13;;;;;;;1.60;0.80;;;13.60;99.90;;;;;;5113237;28;20769;-59
2023/04/28 07:36:40;;;;;;;1.40;1.17;;;13.60;99.90;;;;;;5115694;28;20427;-57
2023/04/28 07:39:07;;;;;;;1.40;0.98;;;13.70;99.90;;;;;;5113831;28;20420;-60
2023/04/28 07:41:37;;;;;;;2.60;1.25;;;13.70;99.90;;;;;;5112950;28;20863;-57
2023/04/28 07:44:07;;;;;;;2.00;0.80;;;13.90;99.90;;;;;;5114320;28;20913;-58
2023/04/28 07:46:34;;;;;;;1.10;0.80;;;14.00;99.90;;;;;;5114664;28;20516;-58
2023/04/28 07:49:01;;;;;;;1.30;0.80;;;14.00;99.90;;;;;;5113007;28;20423;-57
2023/04/28 07:51:29;;;;;;;1.50;0.70;;;13.90;99.90;;;;;;5113875;28;20770;-58
2023/04/28 07:53:57;;;;;;;1.10;0.75;;;13.90;99.90;;;;;;5108878;28;20479;-59
2023/04/28 07:56:25;;;;;;;1.50;0.80;;;13.90;99.90;;;;;;5093929;28;20436;-59
2023/04/28 07:58:52;;;;;;;1.40;0.70;;;13.80;99.90;;;;;;5094740;28;20903;-59
2023/04/28 08:01:21;;;;;;;1.20;0.70;;;13.70;99.90;;;;;;5110559;28;20432;-60
2023/04/28 08:03:48;;;;;;;1.40;0.80;;;13.80;99.90;;;;;;5109048;28;20422;-58
2023/04/28 08:06:15;;;;;;;1.30;0.80;;;13.80;99.90;;;;;;5107840;28;20420;-58
2023/04/28 08:08:42;;;;;;;1.20;0.90;;;13.60;99.90;;;;;;5103183;28;20418;-60
2023/04/28 08:11:09;;;;;;;1.20;0.80;;;13.50;99.90;;;;;;5092583;28;20733;-59
2023/04/28 08:13:36;;;;;;;1.80;0.90;;;13.40;99.90;;;;;;5093512;28;20421;-58
2023/04/28 08:16:03;;;;;;;3.60;0.80;;;13.30;99.90;;;;;;5093941;28;20439;-59
2023/04/28 08:18:32;;;;;;;2.80;0.73;;;13.30;99.90;;;;;;5101978;28;20410;-58
2023/04/28 08:20:59;;;;;;;1.65;0.80;;;13.20;99.90;;;;;;5094016;28;20537;-59
2023/04/28 08:23:27;;;;;;;1.10;0.90;;;13.30;99.90;;;;;;5092059;28;21074;-59
2023/04/28 08:25:54;;;;;;;1.70;0.80;;;13.30;99.90;;;;;;5093087;28;20429;-59
2023/04/28 08:28:21;;;;;;;1.80;1.00;;;13.30;99.90;;;;;;5093710;28;20422;-59
2023/04/28 08:30:48;;;;;;;1.10;0.80;;;13.30;99.90;;;;;;5110515;28;20416;-58
2023/04/28 08:33:15;;;;;;;1.90;0.80;;;13.30;99.90;;;;;;5111864;28;20480;-58
2023/04/28 08:35:43;;;;;;;2.50;0.80;;;13.30;99.90;;;;;;5112099;28;20424;-58
2023/04/28 08:38:12;;;;;;;1.10;0.80;;;13.40;99.90;;;;;;5111112;28;20412;-58
2023/04/28 08:40:41;;;;;;;2.50;0.90;;;13.40;99.90;;;;;;5109499;28;20944;-59
2023/04/28 08:43:09;;;;;;;1.20;0.90;;;13.50;99.90;;;;;;5111639;28;20532;-59
2023/04/28 08:45:41;;;;;;;1.60;1.20;;;13.70;99.90;;;;;;5092728;28;20429;-60
2023/04/28 08:48:19;;;;;;;1.65;1.23;;;13.80;99.90;;;;;;5094058;28;20537;-60
2023/04/28 08:50:51;;;;;;;1.30;1.08;;;13.90;99.90;;;;;;5093061;28;20445;-60
2023/04/28 08:53:24;;;;;;;1.40;1.00;;;14.00;99.90;;;;;;5104706;28;20448;-59
2023/04/28 08:55:55;;;;;;;1.70;1.10;;;14.10;99.90;;;;;;5113485;28;20519;-59
2023/04/28 08:58:23;;;;;;;1.60;1.10;;;14.10;99.90;;;;;;5114224;28;20416;-59
2023/04/28 09:00:51;;;;;;;2.20;1.50;;;14.20;99.90;;;;;;5112267;28;20437;-58
2023/04/28 09:03:18;;;;;;;2.30;1.20;;;14.10;99.90;;;;;;5113074;28;20419;-58
2023/04/28 09:05:45;;;;;;;2.00;1.25;;;13.90;99.90;;;;;;5108505;28;20533;-55
2023/04/28 09:08:13;;;;;;;2.00;1.40;;;13.90;99.90;;;;;;5101821;28;20449;-57
2023/04/28 09:10:41;;;;;;;4.10;1.35;;;13.80;99.90;;;;;;5110748;28;20489;-57
2023/04/28 09:13:08;;;;;;;3.70;2.10;;;13.80;99.90;;;;;;5111834;28;20581;-57
2023/04/28 09:15:36;;;;;;;2.70;1.80;;;13.90;99.90;;;;;;5105082;28;20443;-56
2023/04/28 09:18:05;;;;;;;2.75;1.40;;;13.80;99.90;;;;;;5107345;28;20439;-55
2023/04/28 09:20:33;;;;;;;2.40;2.03;;;13.80;99.90;;;;;;5112681;28;20521;-57
2023/04/28 09:23:16;;;;;;;2.83;2.10;;;13.90;99.90;;;;;;5113990;28;20412;-56
2023/04/28 09:25:57;;;;;;;3.20;2.00;;;13.80;99.90;;;;;;5112784;28;20489;-58
2023/04/28 09:28:24;;;;;;;3.83;2.40;;;13.80;99.90;;;;;;5112100;28;20551;-59
2023/04/28 09:30:51;;;;;;;3.10;2.30;;;13.80;99.90;;;;;;5112680;28;20416;-60
2023/04/28 09:33:18;;;;;;;2.97;2.42;;;13.80;99.90;;;;;;5111171;28;20420;-58
2023/04/28 09:35:46;;;;;;;2.35;2.00;;;13.90;99.90;;;;;;5109257;28;20849;-58
2023/04/28 09:38:15;;;;;;;2.20;1.60;;;14.00;99.90;;;;;;5108684;28;20434;-59
2023/04/28 09:40:56;;;;;;;2.70;1.80;;;14.10;99.90;;;;;;5100714;28;20439;-59
2023/04/28 09:43:25;;;;;;;3.10;2.08;;;14.40;99.90;;;;;;5099246;28;20418;-59
2023/04/28 09:45:52;;;;;;;2.17;1.85;;;14.60;99.90;;;;;;5099780;28;20429;-59
2023/04/28 09:48:28;;;;;;;3.20;2.67;;;14.80;99.90;;;;;;5109297;28;20887;-59
2023/04/28 09:50:55;;;;;;;2.67;2.20;;;14.90;99.90;;;;;;5103544;28;20436;-59
2023/04/28 09:53:24;;;;;;;3.42;2.38;;;14.90;99.90;;;;;;5110523;28;20420;-59
2023/04/28 09:55:53;;;;;;;3.00;2.20;;;15.10;99.90;;;;;;5099340;28;20418;-59
2023/04/28 09:58:21;;;;;;;2.25;1.80;;;15.40;99.90;;;;;;5102015;28;20773;-59
2023/04/28 10:00:52;;;;;;;1.70;1.20;;;15.40;99.90;;;;;;5108047;28;20432;-59
2023/04/28 10:03:22;;;;;;;1.73;1.00;;;15.60;99.90;;;;;;5104696;28;20445;-58
2023/04/28 10:05:52;;;;;;;2.20;1.10;;;16.10;99.90;;;;;;5097029;28;20677;-59
2023/04/28 10:08:20;;;;;;;0.80;0.60;;;16.40;99.90;;;;;;5095563;28;20421;-59
2023/04/28 10:10:49;;;;;;;1.08;0.60;;;16.60;99.90;;;;;;5105142;28;20424;-58
2023/04/28 10:13:18;;;;;;;1.05;0.70;;;16.70;99.90;;;;;;5106796;28;20449;-59
2023/04/28 10:15:45;;;;;;;1.38;0.50;;;16.70;99.90;;;;;;5097100;28;21045;-58
2023/04/28 10:18:13;;;;;;;0.90;0.60;;;16.70;99.90;;;;;;5097951;28;20510;-57
2023/04/28 10:20:43;;;;;;;0.93;0.60;;;16.70;99.90;;;;;;5102947;28;20424;-58
2023/04/28 10:23:46;;;;;;;1.23;0.80;;;16.80;99.90;;;;;;5093082;28;20477;-58
2023/04/28 10:26:18;;;;;;;0.90;0.60;;;17.20;99.90;;;;;;5046536;28;20425;-58
2023/04/28 10:28:47;;;;;;;1.50;0.70;;;17.50;99.90;;;;;;5105387;28;20447;-59
2023/04/28 10:31:15;;;;;;;1.10;0.40;;;17.60;99.90;;;;;;5097185;28;20738;-59
2023/04/28 10:33:43;;;;;;;0.80;0.50;;;17.70;99.90;;;;;;5108901;28;20419;-59
2023/04/28 10:36:10;;;;;;;0.70;0.40;;;17.70;99.90;;;;;;5107157;28;20543;-58
2023/04/28 10:39:10;;;;;;;0.90;0.40;;;17.80;99.90;;;;;;5093533;28;20418;-60
2023/04/28 10:41:39;;;;;;;1.00;0.40;;;17.80;99.90;;;;;;5098293;28;20530;-58
2023/04/28 10:44:43;;;;;;;0.80;0.40;;;17.70;99.90;;;;;;5107209;28;20412;-58
2023/04/28 10:47:11;;;;;;;0.60;0.40;;;17.50;99.90;;;;;;5103574;28;20509;-58
2023/04/28 10:50:10;;;;;;;0.70;0.50;;;17.50;99.90;;;;;;5103384;28;20420;-58
2023/04/28 10:52:50;;;;;;;0.70;0.40;;;17.60;99.90;;;;;;5089535;28;20513;-56
2023/04/28 10:55:35;;;;;;;1.00;0.60;;;17.50;99.90;;;;;;5094686;28;20858;-56
2023/04/28 10:58:36;;;;;;;0.55;0.40;;;17.70;99.90;;;;;;5098463;28;20501;-58
2023/04/28 11:01:25;;;;;;;0.70;0.40;;;17.90;99.90;;;;;;5104572;28;20428;-57
2023/04/28 11:03:58;;;;;;;0.80;0.40;;;18.20;99.90;;;;;;5094643;28;20737;-55
2023/04/28 11:06:28;;;;;;;0.50;0.20;;;18.30;99.90;;;;;;5093315;28;20697;-58
2023/04/28 11:08:56;;;;;;;0.40;0.20;;;18.10;99.90;;;;;;5097889;28;20414;-58
2023/04/28 11:11:25;;;;;;;0.40;0.20;;;17.90;99.90;;;;;;5103370;28;20865;-58
2023/04/28 11:13:54;;;;;;;0.50;0.20;;;18.20;99.90;;;;;;5097339;28;20420;-55
2023/04/28 11:16:26;;;;;;;0.50;0.20;;;18.30;99.90;;;;;;5095336;28;20479;-58
2023/04/28 11:18:56;;;;;;;0.40;0.20;;;18.40;99.90;;;;;;5103844;28;20892;-58
2023/04/28 11:21:24;;;;;;;0.40;0.20;;;18.10;99.90;;;;;;5091226;28;20435;-58
2023/04/28 11:23:52;;;;;;;0.50;0.20;;;18.00;99.90;;;;;;5097523;28;20436;-58
2023/04/28 11:26:19;;;;;;;0.38;0.20;;;18.00;99.90;;;;;;5099851;28;20531;-59
2023/04/28 11:28:51;;;;;;;0.40;0.20;;;18.10;99.90;;;;;;5089040;28;20414;-59
2023/04/28 11:31:22;;;;;;;0.40;0.20;;;18.40;99.90;;;;;;5090258;28;20420;-56
2023/04/28 11:34:00;;;;;;;0.70;0.30;;;18.30;99.90;;;;;;5100597;28;20830;-58
2023/04/28 11:36:31;;;;;;;0.40;0.20;;;18.40;99.90;;;;;;5100440;28;20424;-57
2023/04/28 11:38:59;;;;;;;0.40;0.20;;;18.50;99.90;;;;;;5089359;28;20410;-58
2023/04/28 11:41:26;;;;;;;0.70;0.20;;;18.60;99.90;;;;;;5101928;28;20496;-56
2023/04/28 11:43:54;;;;;;;0.52;0.20;;;18.70;99.90;;;;;;5107636;28;20446;-58
2023/04/28 11:46:23;;;;;;;0.70;0.38;;;18.90;99.90;;;;;;5101238;28;20435;-58
2023/04/28 11:49:00;;;;;;;0.70;0.20;;;19.10;99.90;;;;;;5110550;28;20412;-58
2023/04/28 11:51:36;;;;;;;0.40;0.20;;;19.30;99.90;;;;;;5096995;28;20863;-58
2023/04/28 11:54:06;;;;;;;1.00;0.30;;;19.30;99.90;;;;;;5103354;28;20414;-58
2023/04/28 11:56:37;;;;;;;0.40;0.20;;;19.50;99.90;;;;;;5107235;28;21003;-58
2023/04/28 11:59:07;;;;;;;0.40;0.20;;;19.40;99.90;;;;;;5100856;28;20934;-58
2023/04/28 12:01:44;;;;;;;0.30;0.20;;;19.50;99.90;;;;;;5102961;28;20753;-56
2023/04/28 12:04:12;;;;;;;0.50;0.20;;;19.60;99.90;;;;;;5103171;28;20419;-58
2023/04/28 12:06:40;;;;;;;0.50;0.20;;;19.30;99.90;;;;;;5098603;28;20938;-58
2023/04/28 12:09:18;;;;;;;0.70;0.20;;;19.20;99.90;;;;;;5107932;28;21003;-58
2023/04/28 12:11:56;;;;;;;0.60;0.20;;;19.00;99.90;;;;;;5095699;28;20429;-58
2023/04/28 12:14:23;;;;;;;0.30;0.20;;;19.00;99.90;;;;;;5101920;28;20554;-58
2023/04/28 12:16:52;;;;;;;0.40;0.20;;;19.00;99.90;;;;;;5108980;28;20489;-58
2023/04/28 12:19:20;;;;;;;0.40;0.20;;;19.20;99.90;;;;;;5095153;28;20501;-58
2023/04/28 12:22:01;;;;;;;0.40;0.20;;;19.10;99.90;;;;;;5105008;28;20493;-59
2023/04/28 12:24:28;;;;;;;0.60;0.20;;;19.30;99.90;;;;;;5106167;28;20422;-57
2023/04/28 12:27:13;;;;;;;0.60;0.20;;;19.00;99.90;;;;;;5097903;28;20416;-58
2023/04/28 12:29:42;;;;;;;0.40;0.20;;;19.00;99.90;;;;;;5106359;28;20428;-57
2023/04/28 12:32:11;;;;;;;0.40;0.20;;;19.20;99.90;;;;;;5095517;28;20925;-57
2023/04/28 12:34:39;;;;;;;0.60;0.20;;;19.40;99.90;;;;;;5104542;28;20417;-58
2023/04/28 12:37:07;;;;;;;0.40;0.20;;;19.50;99.90;;;;;;5096437;28;20477;-57
2023/04/28 12:39:35;;;;;;;0.50;0.20;;;19.50;99.90;;;;;;5093874;28;20771;-57
2023/04/28 12:42:03;;;;;;;0.60;0.30;;;19.60;99.90;;;;;;5104249;28;20421;-57
2023/04/28 12:44:35;;;;;;;0.45;0.20;;;19.50;99.90;;;;;;5091958;28;20834;-56
2023/04/28 12:47:07;;;;;;;0.40;0.30;;;19.20;99.90;;;;;;5095946;28;20412;-58
2023/04/28 12:49:36;;;;;;;0.80;0.20;;;19.20;99.90;;;;;;5096190;28;20816;-57
2023/04/28 12:52:03;;;;;;;0.40;0.20;;;19.20;99.90;;;;;;5097234;28;20414;-59
2023/04/28 12:54:30;;;;;;;0.47;0.20;;;19.20;99.90;;;;;;5092638;28;20422;-58
2023/04/28 12:56:57;;;;;;;0.40;0.20;;;19.20;99.90;;;;;;5091889;28;20424;-57